Time;durP1;ratioP1;P1;durP2;ratioP2;P2;SDS_P1;SDS_P2;PMS_P1;PMS_P2;Temp;Humidity;BMP_temperature;BMP_pressure;BME280_temperature;BME280_humidity;BME280_pressure;Samples;Min_cycle;Max_cycle;Signal;HPM_P1;HPM_P2
2022/11/26 00:00:07;;;;;;;34.17;14.93;;;;;;;8.07;100.00;101432.50;6497816;22;20368;-78
2022/11/26 00:02:38;;;;;;;33.03;13.43;;;;;;;7.93;100.00;101438.78;6498333;22;20102;-79
2022/11/26 00:05:12;;;;;;;32.97;14.57;;;;;;;7.94;100.00;101446.56;6460255;22;20035;-79
2022/11/26 00:07:51;;;;;;;31.60;13.52;;;;;;;7.89;100.00;101443.13;6498010;22;20003;-79
2022/11/26 00:10:27;;;;;;;34.47;14.15;;;;;;;7.92;100.00;101455.25;6459775;22;20038;-79
2022/11/26 00:12:58;;;;;;;35.33;15.57;;;;;;;7.78;100.00;101454.53;6461157;22;20011;-79
2022/11/26 00:15:30;;;;;;;37.72;15.75;;;;;;;7.72;100.00;101458.06;6497987;22;20003;-78
2022/11/26 00:18:01;;;;;;;36.33;14.82;;;;;;;7.69;100.00;101465.91;6497926;22;20000;-79
2022/11/26 00:20:31;;;;;;;35.67;15.60;;;;;;;7.63;100.00;101468.56;6497570;22;20133;-79
2022/11/26 00:23:03;;;;;;;29.90;15.65;;;;;;;7.51;100.00;101479.06;6497872;22;20437;-78
2022/11/26 00:25:40;;;;;;;34.58;14.98;;;;;;;7.59;100.00;101477.28;6459212;22;20007;-79
2022/11/26 00:28:26;;;;;;;37.83;15.75;;;;;;;7.66;100.00;101484.16;6498077;22;20007;-78
2022/11/26 00:30:59;;;;;;;41.30;14.88;;;;;;;7.67;100.00;101480.66;6497528;22;20389;-80
2022/11/26 00:33:31;;;;;;;32.90;14.18;;;;;;;7.63;100.00;101483.31;6497116;22;20008;-78
2022/11/26 00:36:05;;;;;;;33.10;14.43;;;;;;;7.66;100.00;101483.31;6496002;22;20057;-78
2022/11/26 00:38:36;;;;;;;31.88;14.25;;;;;;;7.76;100.00;101485.81;6497880;22;20004;-79
2022/11/26 00:41:15;;;;;;;39.38;14.00;;;;;;;7.72;100.00;101489.28;6496138;22;20081;-79
2022/11/26 00:43:46;;;;;;;28.75;13.90;;;;;;;7.72;100.00;101489.28;6459224;22;19995;-78
2022/11/26 00:46:19;;;;;;;35.13;14.18;;;;;;;7.74;100.00;101495.31;6496876;22;20004;-79
2022/11/26 00:48:50;;;;;;;36.83;14.07;;;;;;;7.70;100.00;101496.25;6498042;22;20000;-79
2022/11/26 00:51:24;;;;;;;34.15;14.15;;;;;;;7.67;100.00;101503.22;6497967;22;20354;-78
2022/11/26 00:54:00;;;;;;;32.63;14.07;;;;;;;7.64;100.00;101501.50;6498290;22;20008;-79
2022/11/26 00:56:32;;;;;;;35.55;14.13;;;;;;;7.56;100.00;101502.47;6497518;22;20042;-78
2022/11/26 00:59:02;;;;;;;33.15;13.57;;;;;;;7.48;100.00;101515.53;6497223;22;19995;-79
2022/11/26 01:01:32;;;;;;;35.42;14.18;;;;;;;7.44;100.00;101519.03;6460076;22;20043;-79
2022/11/26 01:04:03;;;;;;;37.50;14.40;;;;;;;7.33;100.00;101515.63;6498047;22;20078;-79
2022/11/26 01:06:37;;;;;;;35.92;14.20;;;;;;;7.29;100.00;101523.47;6486579;22;20082;-78
2022/11/26 01:09:17;;;;;;;25.95;13.60;;;;;;;7.24;100.00;101524.41;6497134;22;19995;-78
2022/11/26 01:11:48;;;;;;;37.20;14.23;;;;;;;7.13;100.00;101523.59;6497767;22;20007;-79
2022/11/26 01:14:20;;;;;;;30.30;13.98;;;;;;;7.04;100.00;101526.22;6459763;22;20074;-79
2022/11/26 01:16:54;;;;;;;37.08;14.73;;;;;;;6.96;100.00;101531.47;6496066;22;20332;-79
2022/11/26 01:19:24;;;;;;;28.08;14.20;;;;;;;6.96;100.00;101528.88;6459945;22;19999;-79
2022/11/26 01:21:55;;;;;;;31.73;14.98;;;;;;;6.96;100.00;101533.22;6497761;22;20003;-78
2022/11/26 01:24:25;;;;;;;34.30;15.48;;;;;;;6.97;100.00;101540.16;6496353;22;20279;-80
2022/11/26 01:26:55;;;;;;;42.00;15.95;;;;;;;7.02;100.00;101543.56;6496986;22;20454;-78
2022/11/26 01:29:26;;;;;;;38.88;15.98;;;;;;;6.91;100.00;101551.44;6496917;22;19996;-78
2022/11/26 01:31:56;;;;;;;31.50;14.77;;;;;;;7.02;100.00;101543.56;6496409;22;19999;-79
2022/11/26 01:34:26;;;;;;;41.38;15.35;;;;;;;6.96;100.00;101554.84;6459177;22;20008;-79
2022/11/26 01:36:57;;;;;;;37.15;14.48;;;;;;;7.06;100.00;101555.66;6497189;22;20010;-78
2022/11/26 01:39:27;;;;;;;33.22;15.38;;;;;;;6.91;100.00;101561.81;6497553;22;19995;-79
2022/11/26 01:42:05;;;;;;;32.13;14.18;;;;;;;6.87;100.00;101565.31;6459859;22;19999;-79
2022/11/26 01:44:36;;;;;;;34.53;14.45;;;;;;;6.89;100.00;101562.69;6459547;22;20045;-79
2022/11/26 01:47:28;;;;;;;37.13;14.98;;;;;;;6.92;100.00;101565.31;6496950;22;20007;-79
2022/11/26 01:50:29;;;;;;;42.10;14.93;;;;;;;6.83;100.00;101566.22;6497691;22;20312;-78
2022/11/26 01:53:28;;;;;;;34.38;14.25;;;;;;;6.82;100.00;101568.81;6497315;22;20023;-79
2022/11/26 01:56:04;;;;;;;36.40;13.98;;;;;;;6.85;100.00;101568.78;6448208;22;20046;-79
2022/11/26 01:58:57;;;;;;;36.28;14.38;;;;;;;6.81;100.00;101577.47;6496558;22;19999;-78
2022/11/26 02:01:27;;;;;;;33.70;15.52;;;;;;;6.79;100.00;101569.66;6496789;22;19996;-79
2022/11/26 02:04:08;;;;;;;35.40;14.73;;;;;;;6.67;100.00;101582.72;6459605;22;20006;-79
2022/11/26 02:06:40;;;;;;;37.17;16.75;;;;;;;6.69;100.00;101583.59;6486449;22;20026;-79
2022/11/26 02:09:12;;;;;;;35.25;16.05;;;;;;;6.75;100.00;101588.75;6496357;22;20423;-79
2022/11/26 02:11:43;;;;;;;42.38;17.27;;;;;;;6.85;100.00;101587.84;6497699;22;20038;-79
2022/11/26 02:14:29;;;;;;;33.95;16.77;;;;;;;6.83;100.00;101599.09;6497649;22;20008;-79
2022/11/26 02:17:31;;;;;;;37.40;14.93;;;;;;;6.69;100.00;101601.75;6458816;22;20007;-79
2022/11/26 02:20:16;;;;;;;33.60;13.98;;;;;;;6.86;100.00;101597.38;6496850;22;20018;-78
2022/11/26 02:23:05;;;;;;;35.53;14.10;;;;;;;6.87;100.00;101593.03;6458997;22;20003;-79
2022/11/26 02:26:23;;;;;;;36.33;16.70;;;;;;;6.99;100.00;101605.97;6457924;22;20026;-78
2022/11/26 02:29:05;;;;;;;36.00;14.57;;;;;;;7.00;100.00;101611.16;6452466;22;20057;-79
2022/11/26 02:31:47;;;;;;;35.75;13.70;;;;;;;7.06;100.00;101607.66;6496403;22;20283;-79
2022/11/26 02:34:17;;;;;;;35.50;13.43;;;;;;;7.02;100.00;101621.53;6497290;22;20297;-78
2022/11/26 02:36:57;;;;;;;34.22;13.05;;;;;;;7.08;100.00;101614.59;6458567;22;20007;-79
2022/11/26 02:39:29;;;;;;;32.70;13.50;;;;;;;7.03;100.00;101612.88;6458334;22;20435;-78
2022/11/26 02:42:02;;;;;;;26.42;12.75;;;;;;;7.02;100.00;101617.22;6497319;22;20370;-79
2022/11/26 02:44:43;;;;;;;35.90;13.18;;;;;;;7.05;100.00;101621.53;6496943;22;20501;-77
2022/11/26 02:47:18;;;;;;;36.80;13.27;;;;;;;7.18;100.00;101620.59;6496327;22;20008;-77
2022/11/26 02:49:50;;;;;;;32.28;12.20;;;;;;;7.22;100.00;101631.81;6458478;22;20011;-78
2022/11/26 02:52:22;;;;;;;31.38;12.13;;;;;;;7.20;100.00;101631.84;6496182;22;20015;-77
2022/11/26 02:54:54;;;;;;;38.65;12.07;;;;;;;7.16;100.00;101630.16;6496475;22;20006;-79
2022/11/26 02:57:28;;;;;;;32.60;12.82;;;;;;;7.22;100.00;101631.81;6496014;22;19999;-79
2022/11/26 02:59:59;;;;;;;33.07;12.10;;;;;;;7.30;100.00;101637.00;6495838;22;20446;-78
2022/11/26 03:02:48;;;;;;;31.45;12.52;;;;;;;7.18;100.00;101639.66;6495942;22;20069;-79
2022/11/26 03:05:19;;;;;;;27.88;11.40;;;;;;;7.22;100.00;101637.03;6496293;22;20150;-79
2022/11/26 03:07:51;;;;;;;33.97;13.63;;;;;;;7.28;100.00;101637.00;6495823;22;19999;-79
2022/11/26 03:10:27;;;;;;;39.33;12.27;;;;;;;7.41;100.00;101638.69;6495997;22;20031;-79
2022/11/26 03:12:58;;;;;;;32.10;11.45;;;;;;;7.34;100.00;101647.38;6496086;22;20003;-79
2022/11/26 03:15:28;;;;;;;31.95;10.70;;;;;;;7.40;100.00;101657.75;6495909;22;20423;-79
2022/11/26 03:17:59;;;;;;;33.45;11.10;;;;;;;7.46;100.00;101652.50;6458411;22;20349;-79
2022/11/26 03:20:29;;;;;;;36.75;11.30;;;;;;;7.40;100.00;101662.09;6496021;22;20003;-79
2022/11/26 03:22:59;;;;;;;28.95;10.18;;;;;;;7.45;100.00;101668.09;6498079;22;20061;-77
2022/11/26 03:25:30;;;;;;;29.77;10.15;;;;;;;7.44;100.00;101659.47;6496715;22;20347;-79
2022/11/26 03:28:01;;;;;;;34.15;10.23;;;;;;;7.38;100.00;101669.88;6498693;22;20046;-79
2022/11/26 03:30:31;;;;;;;34.13;9.50;;;;;;;7.47;100.00;101674.16;6498655;22;20075;-79
2022/11/26 03:33:02;;;;;;;33.20;9.35;;;;;;;7.38;100.00;101672.47;6498383;22;20053;-79
2022/11/26 03:35:32;;;;;;;29.75;9.13;;;;;;;7.30;100.00;101673.38;6498371;22;20007;-79
2022/11/26 03:38:02;;;;;;;35.72;9.13;;;;;;;7.31;100.00;101681.19;6497655;22;20007;-79
2022/11/26 03:40:33;;;;;;;25.42;8.73;;;;;;;7.20;100.00;101673.44;6497603;22;20438;-79
2022/11/26 03:43:03;;;;;;;25.50;9.45;;;;;;;7.28;100.00;101676.88;6497847;22;20082;-79
2022/11/26 03:45:33;;;;;;;28.88;10.40;;;;;;;7.19;100.00;101669.13;6498640;22;20000;-79
2022/11/26 03:48:04;;;;;;;27.67;9.93;;;;;;;7.12;100.00;101680.41;6498746;22;20035;-79
2022/11/26 03:50:34;;;;;;;25.55;10.63;;;;;;;7.23;100.00;101674.31;6498631;22;20000;-78
2022/11/26 03:53:04;;;;;;;32.47;11.10;;;;;;;7.07;100.00;101687.38;6460667;22;19996;-79
2022/11/26 03:55:35;;;;;;;34.40;10.63;;;;;;;7.10;100.00;101690.81;6459525;22;20019;-79
2022/11/26 03:58:05;;;;;;;42.20;12.45;;;;;;;7.06;100.00;101689.09;6497890;22;20057;-79
2022/11/26 04:00:35;;;;;;;26.00;10.20;;;;;;;7.08;100.00;101691.72;6497488;22;20454;-80
2022/11/26 04:03:06;;;;;;;27.40;10.52;;;;;;;7.01;100.00;101688.25;6497709;22;20316;-78
2022/11/26 04:05:36;;;;;;;28.45;9.07;;;;;;;6.99;100.00;101696.91;6497504;22;19999;-79
2022/11/26 04:08:06;;;;;;;27.60;8.50;;;;;;;6.98;100.00;101692.59;6497660;22;20003;-78
2022/11/26 04:10:37;;;;;;;32.10;9.43;;;;;;;6.99;100.00;101695.22;6497885;22;20346;-79
2022/11/26 04:13:07;;;;;;;33.55;8.85;;;;;;;6.88;100.00;101706.47;6497120;22;20004;-79
2022/11/26 04:15:37;;;;;;;23.42;8.73;;;;;;;6.77;100.00;101706.50;6497321;22;20343;-79
2022/11/26 04:18:08;;;;;;;27.10;8.57;;;;;;;6.77;100.00;101714.28;6497645;22;20000;-79
2022/11/26 04:20:38;;;;;;;32.78;9.10;;;;;;;6.69;100.00;101712.56;6459496;22;20385;-79
2022/11/26 04:23:08;;;;;;;29.98;9.27;;;;;;;6.74;100.00;101705.66;6497263;22;20007;-79
2022/11/26 04:25:39;;;;;;;25.98;9.90;;;;;;;6.62;100.00;101713.47;6496502;22;20090;-79
2022/11/26 04:28:09;;;;;;;34.92;11.07;;;;;;;6.63;100.00;101713.44;6459948;22;20000;-79
2022/11/26 04:30:40;;;;;;;31.02;11.40;;;;;;;6.66;100.00;101720.38;6496554;22;20394;-79
2022/11/26 04:33:10;;;;;;;27.50;10.73;;;;;;;6.52;100.00;101716.94;6459236;22;20007;-78
2022/11/26 04:35:41;;;;;;;27.45;11.02;;;;;;;6.55;100.00;101732.50;6497444;22;20121;-78
2022/11/26 04:38:11;;;;;;;36.80;14.45;;;;;;;6.46;100.00;101735.97;6497200;22;20183;-79
2022/11/26 04:40:41;;;;;;;32.55;13.25;;;;;;;6.43;100.00;101738.56;6496719;22;20008;-79
2022/11/26 04:43:12;;;;;;;33.70;12.50;;;;;;;6.43;100.00;101737.72;6459923;22;20186;-79
2022/11/26 04:45:42;;;;;;;30.70;10.73;;;;;;;6.37;100.00;101738.59;6459693;22;20690;-78
2022/11/26 04:48:12;;;;;;;31.08;10.02;;;;;;;6.41;100.00;101749.84;6497368;22;20061;-79
2022/11/26 04:50:43;;;;;;;26.27;9.30;;;;;;;6.37;100.00;101742.91;6459382;22;20008;-79
2022/11/26 04:53:13;;;;;;;38.00;9.93;;;;;;;6.42;100.00;101743.78;6459846;22;20090;-78
2022/11/26 04:55:44;;;;;;;23.02;9.15;;;;;;;6.44;100.00;101742.06;6497675;22;20000;-79
2022/11/26 04:58:15;;;;;;;25.85;9.30;;;;;;;6.46;100.00;101742.91;6459565;22;20466;-79
2022/11/26 05:00:46;;;;;;;28.02;9.52;;;;;;;6.48;100.00;101746.38;6459698;22;20501;-79
2022/11/26 05:03:18;;;;;;;17.70;7.65;;;;;;;6.54;100.00;101756.75;6497667;22;20012;-79
2022/11/26 05:05:48;;;;;;;28.58;9.57;;;;;;;6.54;100.00;101751.53;6497075;22;20011;-78
2022/11/26 05:08:19;;;;;;;33.05;9.02;;;;;;;6.59;100.00;101758.47;6459203;22;20470;-79
2022/11/26 05:10:53;;;;;;;25.02;9.15;;;;;;;6.60;100.00;101760.19;6497282;22;20011;-79
2022/11/26 05:13:24;;;;;;;32.47;9.67;;;;;;;6.58;100.00;101758.50;6459817;22;20011;-79
2022/11/26 05:15:54;;;;;;;29.02;8.45;;;;;;;6.54;100.00;101761.94;6469983;22;20234;-79
2022/11/26 05:18:24;;;;;;;20.25;7.53;;;;;;;6.48;100.00;101761.94;6497033;22;20010;-79
2022/11/26 05:20:55;;;;;;;18.83;6.93;;;;;;;6.43;100.00;101763.69;6459249;22;19995;-79
2022/11/26 05:23:25;;;;;;;22.17;9.43;;;;;;;6.37;100.00;101767.16;6459713;22;20240;-79
2022/11/26 05:25:55;;;;;;;19.80;7.70;;;;;;;6.32;100.00;101765.41;6496896;22;20347;-78
2022/11/26 05:28:26;;;;;;;19.42;8.52;;;;;;;6.24;100.00;101774.94;6487010;22;19996;-79
2022/11/26 05:31:01;;;;;;;20.30;8.00;;;;;;;6.16;100.00;101768.84;6496874;22;20386;-79
2022/11/26 05:33:31;;;;;;;27.88;9.30;;;;;;;6.07;100.00;101771.44;6497303;22;20035;-79
2022/11/26 05:36:03;;;;;;;23.58;7.80;;;;;;;5.97;100.00;101774.88;6496642;22;20394;-79
2022/11/26 05:38:33;;;;;;;31.27;9.93;;;;;;;5.96;100.00;101775.75;6459286;22;20018;-79
2022/11/26 05:41:03;;;;;;;22.52;10.68;;;;;;;5.90;100.00;101776.59;6486096;22;20439;-78
2022/11/26 05:43:34;;;;;;;20.95;10.48;;;;;;;5.86;100.00;101785.22;6496852;22;20000;-79
2022/11/26 05:46:06;;;;;;;25.38;10.73;;;;;;;5.81;100.00;101786.06;6496829;22;20003;-79
2022/11/26 05:48:36;;;;;;;20.52;10.05;;;;;;;5.76;100.00;101795.53;6497072;22;20065;-79
2022/11/26 05:51:06;;;;;;;27.42;10.23;;;;;;;5.73;100.00;101796.38;6459153;22;20510;-80
2022/11/26 05:53:37;;;;;;;25.63;9.98;;;;;;;5.76;100.00;101788.59;6497625;22;19999;-79
2022/11/26 05:56:07;;;;;;;35.20;10.60;;;;;;;5.77;100.00;101797.28;6487566;22;20411;-78
2022/11/26 05:58:38;;;;;;;25.70;9.18;;;;;;;5.77;100.00;101800.72;6496997;22;20345;-79
2022/11/26 06:01:09;;;;;;;22.83;9.20;;;;;;;5.75;100.00;101809.38;6497577;22;20024;-79
2022/11/26 06:03:39;;;;;;;21.10;8.80;;;;;;;5.62;100.00;101805.00;6459492;22;20403;-78
2022/11/26 06:06:09;;;;;;;33.63;9.02;;;;;;;5.62;100.00;101797.22;6497186;22;20494;-79
2022/11/26 06:08:40;;;;;;;22.45;8.05;;;;;;;5.57;100.00;101806.72;6458887;22;20011;-79
2022/11/26 06:11:12;;;;;;;26.08;8.30;;;;;;;5.56;100.00;101799.78;6458627;22;20014;-78
2022/11/26 06:13:42;;;;;;;25.63;7.55;;;;;;;5.49;100.00;101803.19;6496456;22;20008;-78
2022/11/26 06:16:12;;;;;;;19.05;7.57;;;;;;;5.49;100.00;101808.38;6496213;22;20465;-79
2022/11/26 06:18:43;;;;;;;19.60;8.02;;;;;;;5.42;100.00;101809.22;6497146;22;20015;-79
2022/11/26 06:21:13;;;;;;;23.08;9.15;;;;;;;5.39;100.00;101817.00;6496525;22;20389;-79
2022/11/26 06:23:43;;;;;;;23.52;8.05;;;;;;;5.38;100.00;101826.47;6497051;22;19999;-78
2022/11/26 06:26:13;;;;;;;28.45;8.85;;;;;;;5.42;100.00;101822.19;6496231;22;20004;-78
2022/11/26 06:28:44;;;;;;;25.83;10.43;;;;;;;5.47;100.00;101821.34;6496720;22;20010;-78
2022/11/26 06:31:14;;;;;;;32.10;10.10;;;;;;;5.48;100.00;101825.69;6496210;22;20034;-79
2022/11/26 06:33:44;;;;;;;24.10;10.63;;;;;;;5.51;100.00;101835.19;6497007;22;20004;-79
2022/11/26 06:36:15;;;;;;;28.60;11.60;;;;;;;5.56;100.00;101839.53;6496824;22;20617;-77
2022/11/26 06:38:45;;;;;;;27.02;11.13;;;;;;;5.58;100.00;101836.97;6496387;22;20427;-80
2022/11/26 06:41:15;;;;;;;27.15;9.40;;;;;;;5.72;100.00;101846.53;6495490;22;20018;-79
2022/11/26 06:43:46;;;;;;;21.60;7.18;;;;;;;5.78;100.00;101850.88;6496526;22;20073;-79
2022/11/26 06:46:16;;;;;;;19.00;6.63;;;;;;;5.61;100.00;101860.31;6496498;22;20000;-78
2022/11/26 06:48:47;;;;;;;18.30;6.43;;;;;;;5.54;100.00;101855.97;6484033;22;20010;-79
2022/11/26 06:51:20;;;;;;;15.32;6.15;;;;;;;5.54;100.00;101858.56;6496073;22;20000;-79
2022/11/26 06:53:50;;;;;;;16.50;6.20;;;;;;;5.47;100.00;101872.31;6496903;22;20465;-79
2022/11/26 06:56:21;;;;;;;15.45;6.45;;;;;;;5.57;100.00;101863.75;6495394;22;20027;-78
2022/11/26 06:58:54;;;;;;;13.93;6.45;;;;;;;5.47;100.00;101864.53;6458314;22;20008;-76
2022/11/26 07:01:25;;;;;;;19.42;7.00;;;;;;;5.43;100.00;101871.44;6457754;22;20450;-78
2022/11/26 07:03:55;;;;;;;16.95;6.65;;;;;;;5.34;100.00;101870.50;6497445;22;20412;-79
2022/11/26 07:06:29;;;;;;;17.13;6.00;;;;;;;5.27;100.00;101879.13;6457685;22;20033;-78
2022/11/26 07:09:04;;;;;;;21.48;7.28;;;;;;;5.30;100.00;101884.31;6496438;22;20023;-78
2022/11/26 07:11:36;;;;;;;11.40;4.60;;;;;;;5.17;100.00;101882.47;6503836;22;20074;-78
2022/11/26 07:14:07;;;;;;;15.73;5.82;;;;;;;5.10;100.00;101875.53;6465652;22;20103;-78
2022/11/26 07:16:37;;;;;;;18.20;5.70;;;;;;;5.02;100.00;101877.22;6485201;22;20023;-79
2022/11/26 07:19:11;;;;;;;14.38;5.88;;;;;;;5.05;100.00;101890.19;6496162;22;20443;-79
2022/11/26 07:21:42;;;;;;;16.93;5.93;;;;;;;5.12;100.00;101883.34;6496922;22;20435;-78
2022/11/26 07:24:12;;;;;;;19.75;6.30;;;;;;;5.21;100.00;101897.22;6494681;22;20201;-79
2022/11/26 07:26:42;;;;;;;23.02;6.97;;;;;;;5.31;100.00;101898.16;6495418;22;20034;-78
2022/11/26 07:29:13;;;;;;;20.17;6.78;;;;;;;5.40;100.00;101896.50;6496229;22;20003;-79
2022/11/26 07:31:43;;;;;;;18.23;6.47;;;;;;;5.49;100.00;101899.13;6495439;22;20470;-80
2022/11/26 07:34:13;;;;;;;22.77;6.88;;;;;;;5.63;100.00;101905.25;6496085;22;20054;-78
2022/11/26 07:36:44;;;;;;;30.85;7.47;;;;;;;5.69;100.00;101913.06;6496256;22;19999;-78
2022/11/26 07:39:14;;;;;;;17.90;6.05;;;;;;;5.74;100.00;101912.22;6457268;22;20087;-77
2022/11/26 07:41:44;;;;;;;17.55;5.43;;;;;;;5.38;100.00;101913.75;6484276;22;20007;-79
2022/11/26 07:44:15;;;;;;;17.90;5.40;;;;;;;5.42;100.00;101912.91;6497313;22;20011;-78
2022/11/26 07:46:45;;;;;;;16.33;6.32;;;;;;;5.38;100.00;101917.19;6496960;22;20343;-79
2022/11/26 07:49:15;;;;;;;13.75;5.05;;;;;;;5.60;100.00;101920.81;6496798;22;20007;-79
2022/11/26 07:51:46;;;;;;;14.38;4.25;;;;;;;6.03;100.00;101923.66;6486257;22;20100;-80
2022/11/26 07:54:16;;;;;;;11.35;4.40;;;;;;;6.40;100.00;101929.84;6497570;22;20003;-79
2022/11/26 07:56:46;;;;;;;17.50;4.35;;;;;;;6.92;100.00;101923.91;6459078;22;20018;-79
2022/11/26 07:59:17;;;;;;;10.68;3.88;;;;;;;7.00;100.00;101920.44;6496794;22;20014;-79
2022/11/26 08:01:47;;;;;;;12.85;4.30;;;;;;;6.62;100.00;101926.44;6496651;22;20002;-79
2022/11/26 08:04:17;;;;;;;10.20;4.00;;;;;;;6.44;100.00;101934.19;6484351;22;20000;-79
2022/11/26 08:06:48;;;;;;;14.05;4.15;;;;;;;6.12;100.00;101943.59;6486031;22;20004;-76
2022/11/26 08:09:18;;;;;;;17.85;5.15;;;;;;;6.17;100.00;101941.88;6498246;22;20395;-79
2022/11/26 08:11:48;;;;;;;13.57;4.70;;;;;;;6.23;100.00;101947.09;6498937;22;20011;-78
2022/11/26 08:14:19;;;;;;;12.23;4.18;;;;;;;6.18;100.00;101933.22;6485094;22;20011;-79
2022/11/26 08:16:49;;;;;;;20.63;5.00;;;;;;;6.08;100.00;101947.03;6495943;22;20000;-79
2022/11/26 08:19:19;;;;;;;15.48;4.72;;;;;;;6.03;100.00;101948.72;6496826;22;20342;-79
2022/11/26 08:21:50;;;;;;;18.52;5.53;;;;;;;6.15;100.00;101939.28;6498211;22;20057;-78
2022/11/26 08:24:22;;;;;;;21.50;5.65;;;;;;;6.68;100.00;101949.81;6459470;22;20496;-79
2022/11/26 08:26:52;;;;;;;24.88;7.50;;;;;;;7.74;100.00;101942.03;6497665;22;20006;-78
2022/11/26 08:29:23;;;;;;;15.13;6.30;;;;;;;8.39;100.00;101948.75;6486704;22;20015;-79
2022/11/26 08:31:53;;;;;;;18.88;6.25;;;;;;;8.38;100.00;101947.03;6487363;22;20012;-79
2022/11/26 08:34:23;;;;;;;21.40;5.50;;;;;;;8.47;100.00;101949.59;6497452;22;20003;-79
2022/11/26 08:36:54;;;;;;;23.13;5.78;;;;;;;8.25;100.00;101949.69;6458350;22;20014;-79
2022/11/26 08:39:24;;;;;;;25.02;6.53;;;;;;;8.11;100.00;101948.84;6496637;22;20010;-78
2022/11/26 08:41:55;;;;;;;20.83;5.80;;;;;;;8.15;100.00;101961.84;6497639;22;20018;-79
2022/11/26 08:44:25;;;;;;;20.67;6.35;;;;;;;8.27;100.00;101968.78;6498367;22;20000;-79
2022/11/26 08:46:55;;;;;;;21.33;6.13;;;;;;;8.25;100.00;101966.19;6497784;22;20003;-80
2022/11/26 08:49:26;;;;;;;23.70;6.72;;;;;;;8.04;100.00;101974.03;6458220;22;20399;-79
2022/11/26 08:51:56;;;;;;;24.88;6.55;;;;;;;7.98;100.00;101971.47;6497820;22;20053;-79
2022/11/26 08:54:26;;;;;;;20.10;6.22;;;;;;;7.74;100.00;101971.50;6458230;22;20004;-79
2022/11/26 08:56:57;;;;;;;26.85;6.90;;;;;;;7.56;100.00;101987.13;6496940;22;20062;-79
2022/11/26 08:59:27;;;;;;;23.02;7.10;;;;;;;7.56;100.00;101987.13;6484601;22;19996;-79
2022/11/26 09:01:57;;;;;;;25.50;7.63;;;;;;;7.43;100.00;101980.22;6498305;22;20491;-79
2022/11/26 09:04:28;;;;;;;18.40;6.60;;;;;;;7.54;100.00;101981.06;6496010;22;19999;-79
2022/11/26 09:06:58;;;;;;;25.88;7.55;;;;;;;7.85;100.00;101974.09;6496638;22;20255;-78
2022/11/26 09:09:28;;;;;;;22.50;7.68;;;;;;;7.87;100.00;101978.41;6497058;22;20007;-79
2022/11/26 09:12:01;;;;;;;24.77;6.97;;;;;;;8.08;100.00;101983.56;6499169;22;20015;-79
2022/11/26 09:14:37;;;;;;;27.38;7.50;;;;;;;8.35;100.00;101975.69;6499261;22;19995;-79
2022/11/26 09:17:08;;;;;;;20.83;7.10;;;;;;;8.40;100.00;101979.13;6498047;22;19999;-78
2022/11/26 09:19:39;;;;;;;20.70;6.70;;;;;;;8.63;100.00;101989.47;6457360;22;20078;-79
2022/11/26 09:22:09;;;;;;;20.75;6.30;;;;;;;8.70;100.00;101980.75;6459046;22;20035;-76
2022/11/26 09:24:40;;;;;;;22.88;6.72;;;;;;;8.73;100.00;101981.56;6496189;22;20370;-77
2022/11/26 09:27:10;;;;;;;18.48;6.15;;;;;;;8.78;100.00;101985.06;6492685;22;20379;-76
2022/11/26 09:29:41;;;;;;;18.85;6.57;;;;;;;8.89;100.00;101980.63;6494090;22;20003;-77
2022/11/26 09:32:11;;;;;;;22.35;7.40;;;;;;;8.99;100.00;101984.03;6494817;22;20004;-77
2022/11/26 09:34:41;;;;;;;21.33;7.00;;;;;;;8.91;100.00;101984.06;6495308;22;20141;-78
2022/11/26 09:37:12;;;;;;;29.85;7.85;;;;;;;9.06;100.00;101976.16;6495157;22;20014;-78
2022/11/26 09:39:43;;;;;;;21.63;7.40;;;;;;;9.01;100.00;101983.16;6493495;22;20190;-80
2022/11/26 09:42:32;;;;;;;26.73;7.63;;;;;;;8.95;100.00;101979.72;6494465;22;20454;-78
2022/11/26 09:45:25;;;;;;;28.30;8.05;;;;;;;9.10;100.00;101987.44;6454399;22;20013;-77
2022/11/26 09:47:56;;;;;;;22.20;7.00;;;;;;;9.12;100.00;101986.56;6455979;22;20014;-78
2022/11/26 09:50:32;;;;;;;30.65;8.23;;;;;;;9.26;100.00;101982.09;6482321;22;20019;-77
2022/11/26 09:53:15;;;;;;;24.00;7.97;;;;;;;9.45;100.00;101987.16;6493693;22;20014;-78
2022/11/26 09:55:51;;;;;;;22.73;8.35;;;;;;;9.44;100.00;101989.75;6456664;22;20004;-78
2022/11/26 09:59:00;;;;;;;22.35;7.25;;;;;;;9.46;100.00;101991.50;6493558;22;20021;-77
2022/11/26 10:01:32;;;;;;;23.15;7.97;;;;;;;9.41;100.00;101995.00;6483593;22;20000;-79
2022/11/26 10:04:06;;;;;;;27.08;8.48;;;;;;;9.41;100.00;101995.00;6494216;22;20289;-76
2022/11/26 10:06:54;;;;;;;29.95;8.57;;;;;;;9.26;100.00;101995.13;6455610;22;20070;-77
2022/11/26 10:10:09;;;;;;;25.35;7.80;;;;;;;9.17;100.00;102001.28;6493182;22;20468;-77
2022/11/26 10:13:01;;;;;;;25.80;7.97;;;;;;;9.20;100.00;102003.88;6478029;22;20264;-78
2022/11/26 10:15:51;;;;;;;32.72;7.60;;;;;;;9.37;100.00;101998.53;6490308;22;20008;-78
2022/11/26 10:18:39;;;;;;;20.83;8.07;;;;;;;9.53;100.00;102001.03;6493414;22;20087;-78
2022/11/26 10:21:16;;;;;;;19.45;7.97;;;;;;;9.76;100.00;101992.94;6482462;22;20007;-76
2022/11/26 10:23:56;;;;;;;34.67;11.95;;;;;;;9.71;100.00;101994.75;6492886;22;20011;-78
2022/11/26 10:26:30;;;;;;;31.55;12.32;;;;;;;9.61;100.00;102003.53;6486976;22;20363;-78
2022/11/26 10:29:20;;;;;;;24.20;8.93;;;;;;;9.66;100.00;101999.16;6455991;22;20470;-75
2022/11/26 10:31:56;;;;;;;20.65;7.05;;;;;;;9.67;100.00;101995.66;6455612;22;20007;-77
2022/11/26 10:34:38;;;;;;;28.00;8.88;;;;;;;9.63;100.00;102000.03;6492649;22;20023;-78
2022/11/26 10:37:08;;;;;;;25.08;8.35;;;;;;;9.64;100.00;101993.09;6486330;22;20090;-77
2022/11/26 10:39:38;;;;;;;25.38;8.38;;;;;;;9.70;100.00;102000.84;6454351;22;20083;-77
2022/11/26 10:42:16;;;;;;;21.92;8.55;;;;;;;9.66;100.00;101999.16;6486446;22;20008;-79
2022/11/26 10:44:51;;;;;;;24.70;8.70;;;;;;;9.71;100.00;102005.19;6456884;22;20035;-78
2022/11/26 10:47:24;;;;;;;26.98;8.27;;;;;;;9.86;100.00;102005.91;6454839;22;20013;-78
2022/11/26 10:50:13;;;;;;;26.95;8.48;;;;;;;9.71;100.00;102005.19;6493761;22;20000;-78
2022/11/26 10:52:44;;;;;;;27.70;8.80;;;;;;;9.78;100.00;102010.34;6482860;22;20011;-78
2022/11/26 10:55:17;;;;;;;22.20;8.50;;;;;;;9.88;100.00;102004.16;6492374;22;20012;-76
2022/11/26 10:58:02;;;;;;;25.13;8.25;;;;;;;9.81;100.00;102007.69;6455570;22;20008;-76
2022/11/26 11:00:44;;;;;;;29.25;9.63;;;;;;;9.73;100.00;102009.53;6493507;22;20450;-78
2022/11/26 11:03:24;;;;;;;25.42;8.85;;;;;;;9.69;100.00;102013.03;6455814;22;20014;-77
2022/11/26 11:06:19;;;;;;;28.05;9.00;;;;;;;9.73;100.00;102013.88;6455807;22;20000;-76
2022/11/26 11:08:51;;;;;;;28.27;9.75;;;;;;;9.74;100.00;102011.25;6454838;22;20007;-77
2022/11/26 11:11:27;;;;;;;24.83;9.10;;;;;;;9.70;100.00;102020.00;6493251;22;20594;-78
2022/11/26 11:13:57;;;;;;;27.30;8.95;;;;;;;9.70;100.00;102019.13;6463130;22;20004;-77
2022/11/26 11:16:31;;;;;;;25.27;9.75;;;;;;;9.71;100.00;102021.72;6493213;22;20000;-78
2022/11/26 11:19:04;;;;;;;30.27;9.70;;;;;;;9.82;100.00;102021.63;6485423;22;20007;-75
2022/11/26 11:21:37;;;;;;;26.00;9.20;;;;;;;9.94;100.00;102024.09;6456524;22;20007;-77
2022/11/26 11:24:16;;;;;;;27.33;9.13;;;;;;;9.78;100.00;102028.63;6484193;22;20011;-75
2022/11/26 11:26:52;;;;;;;28.85;9.75;;;;;;;9.76;100.00;102033.00;6490727;22;20003;-77
2022/11/26 11:29:28;;;;;;;28.55;9.50;;;;;;;9.76;100.00;102034.72;6484036;22;20107;-77
2022/11/26 11:32:03;;;;;;;25.98;8.65;;;;;;;9.81;100.00;102032.97;6494544;22;20343;-76
2022/11/26 11:34:41;;;;;;;26.58;8.73;;;;;;;9.70;100.00;102025.22;6484525;22;20448;-76
2022/11/26 11:37:14;;;;;;;24.85;8.80;;;;;;;9.74;100.00;102032.16;6481334;22;20022;-77
2022/11/26 11:39:44;;;;;;;27.85;8.88;;;;;;;9.71;100.00;102034.78;6484488;22;20010;-77
2022/11/26 11:42:31;;;;;;;25.23;9.43;;;;;;;9.76;100.00;102029.50;6493720;22;20007;-76